sensor_id;sensor_type;location;lat;lon;timestamp;pressure;altitude;pressure_sealevel;temperature
34901;BMP280;21112;51.976;5.660;2024-01-11T02:27:25;102274.09;;;-5.98
34901;BMP280;21112;51.976;5.660;2024-01-11T02:29:51;102275.84;;;-5.96
34901;BMP280;21112;51.976;5.660;2024-01-11T02:32:18;102278.53;;;-5.93
34901;BMP280;21112;51.976;5.660;2024-01-11T02:34:45;102285.75;;;-5.94
34901;BMP280;21112;51.976;5.660;2024-01-11T02:37:12;102285.75;;;-5.94
34901;BMP280;21112;51.976;5.660;2024-01-11T02:39:39;102287.38;;;-5.95
34901;BMP280;21112;51.976;5.660;2024-01-11T02:42:06;102279.91;;;-5.96
34901;BMP280;21112;51.976;5.660;2024-01-11T02:44:34;102281.50;;;-5.97
34901;BMP280;21112;51.976;5.660;2024-01-11T02:47:02;102269.50;;;-5.94
34901;BMP280;21112;51.976;5.660;2024-01-11T02:49:29;102267.47;;;-5.88
34901;BMP280;21112;51.976;5.660;2024-01-11T02:51:55;102270.84;;;-5.86
34901;BMP280;21112;51.976;5.660;2024-01-11T02:54:22;102262.56;;;-5.88
34901;BMP280;21112;51.976;5.660;2024-01-11T02:56:48;102260.84;;;-5.89
34901;BMP280;21112;51.976;5.660;2024-01-11T02:59:15;102252.91;;;-5.98
34901;BMP280;21112;51.976;5.660;2024-01-11T03:01:43;102253.00;;;-5.96
34901;BMP280;21112;51.976;5.660;2024-01-11T03:04:10;102248.56;;;-6.02
34901;BMP280;21112;51.976;5.660;2024-01-11T03:06:36;102244.84;;;-6.08
34901;BMP280;21112;51.976;5.660;2024-01-11T03:09:03;102252.94;;;-6.09
34901;BMP280;21112;51.976;5.660;2024-01-11T03:11:30;102253.69;;;-6.10
34901;BMP280;21112;51.976;5.660;2024-01-11T03:13:56;102255.63;;;-6.18
34901;BMP280;21112;51.976;5.660;2024-01-11T03:16:23;102255.63;;;-6.18
34901;BMP280;21112;51.976;5.660;2024-01-11T03:18:51;102251.94;;;-6.24
34901;BMP280;21112;51.976;5.660;2024-01-11T03:21:18;102255.66;;;-6.29
34901;BMP280;21112;51.976;5.660;2024-01-11T03:23:44;102258.97;;;-6.29
34901;BMP280;21112;51.976;5.660;2024-01-11T03:26:15;102259.59;;;-6.31
34901;BMP280;21112;51.976;5.660;2024-01-11T03:28:42;102274.16;;;-6.33
34901;BMP280;21112;51.976;5.660;2024-01-11T03:31:09;102280.22;;;-6.28
34901;BMP280;21112;51.976;5.660;2024-01-11T03:33:36;102277.63;;;-6.18
34901;BMP280;21112;51.976;5.660;2024-01-11T03:36:08;102278.91;;;-6.11
34901;BMP280;21112;51.976;5.660;2024-01-11T03:38:35;102279.72;;;-6.11
34901;BMP280;21112;51.976;5.660;2024-01-11T03:41:02;102285.91;;;-6.16
34901;BMP280;21112;51.976;5.660;2024-01-11T03:43:33;102276.47;;;-6.23
34901;BMP280;21112;51.976;5.660;2024-01-11T03:46:00;102279.56;;;-6.25
34901;BMP280;21112;51.976;5.660;2024-01-11T03:48:26;102280.28;;;-6.26
34901;BMP280;21112;51.976;5.660;2024-01-11T03:50:53;102270.84;;;-6.33
34901;BMP280;21112;51.976;5.660;2024-01-11T03:53:21;102268.22;;;-6.36
34901;BMP280;21112;51.976;5.660;2024-01-11T03:55:48;102270.97;;;-6.32
34901;BMP280;21112;51.976;5.660;2024-01-11T03:58:14;102268.31;;;-6.35
34901;BMP280;21112;51.976;5.660;2024-01-11T04:00:41;102260.88;;;-6.36
34901;BMP280;21112;51.976;5.660;2024-01-11T04:03:08;102257.16;;;-6.43
34901;BMP280;21112;51.976;5.660;2024-01-11T04:05:34;102266.19;;;-6.53
34901;BMP280;21112;51.976;5.660;2024-01-11T04:08:04;102266.44;;;-6.62
34901;BMP280;21112;51.976;5.660;2024-01-11T04:10:32;102284.38;;;-6.61
34901;BMP280;21112;51.976;5.660;2024-01-11T04:12:59;102296.06;;;-6.57
34901;BMP280;21112;51.976;5.660;2024-01-11T04:15:25;102288.09;;;-6.55
34901;BMP280;21112;51.976;5.660;2024-01-11T04:17:52;102282.25;;;-6.45
34901;BMP280;21112;51.976;5.660;2024-01-11T04:20:18;102281.50;;;-6.44
34901;BMP280;21112;51.976;5.660;2024-01-11T04:22:45;102295.63;;;-6.52
34901;BMP280;21112;51.976;5.660;2024-01-11T04:25:12;102281.41;;;-6.46
34901;BMP280;21112;51.976;5.660;2024-01-11T04:27:40;102283.19;;;-6.43
34901;BMP280;21112;51.976;5.660;2024-01-11T04:30:07;102291.91;;;-6.47
34901;BMP280;21112;51.976;5.660;2024-01-11T04:32:34;102286.06;;;-6.37
34901;BMP280;21112;51.976;5.660;2024-01-11T04:35:01;102292.53;;;-6.38
34901;BMP280;21112;51.976;5.660;2024-01-11T04:37:27;102294.22;;;-6.37
34901;BMP280;21112;51.976;5.660;2024-01-11T04:39:54;102297.31;;;-6.28
34901;BMP280;21112;51.976;5.660;2024-01-11T04:42:20;102304.84;;;-6.25
34901;BMP280;21112;51.976;5.660;2024-01-11T04:44:48;102309.75;;;-6.25
34901;BMP280;21112;51.976;5.660;2024-01-11T04:47:15;102311.66;;;-6.21
34901;BMP280;21112;51.976;5.660;2024-01-11T04:49:42;102304.09;;;-6.12
34901;BMP280;21112;51.976;5.660;2024-01-11T04:52:09;102311.53;;;-6.11
34901;BMP280;21112;51.976;5.660;2024-01-11T04:54:35;102307.63;;;-6.09
34901;BMP280;21112;51.976;5.660;2024-01-11T04:57:03;102312.50;;;-6.09
34901;BMP280;21112;51.976;5.660;2024-01-11T04:59:30;102315.66;;;-6.10
34901;BMP280;21112;51.976;5.660;2024-01-11T05:01:58;102312.28;;;-6.12
34901;BMP280;21112;51.976;5.660;2024-01-11T05:04:25;102300.69;;;-6.14
34901;BMP280;21112;51.976;5.660;2024-01-11T05:06:53;102303.56;;;-6.20
34901;BMP280;21112;51.976;5.660;2024-01-11T05:09:19;102305.72;;;-6.24
34901;BMP280;21112;51.976;5.660;2024-01-11T05:11:46;102311.34;;;-6.25
34901;BMP280;21112;51.976;5.660;2024-01-11T05:14:13;102303.78;;;-6.28
34901;BMP280;21112;51.976;5.660;2024-01-11T05:16:40;102295.81;;;-6.26
34901;BMP280;21112;51.976;5.660;2024-01-11T05:19:08;102316.56;;;-6.32
34901;BMP280;21112;51.976;5.660;2024-01-11T05:21:35;102316.34;;;-6.35
34901;BMP280;21112;51.976;5.660;2024-01-11T05:24:02;102301.56;;;-6.37
34901;BMP280;21112;51.976;5.660;2024-01-11T05:26:28;102284.78;;;-6.44
34901;BMP280;21112;51.976;5.660;2024-01-11T05:28:55;102299.78;;;-6.51
34901;BMP280;21112;51.976;5.660;2024-01-11T05:31:22;102301.91;;;-6.55
34901;BMP280;21112;51.976;5.660;2024-01-11T05:33:49;102295.63;;;-6.52
34901;BMP280;21112;51.976;5.660;2024-01-11T05:36:19;102298.19;;;-6.50
34901;BMP280;21112;51.976;5.660;2024-01-11T05:38:47;102285.09;;;-6.51
34901;BMP280;21112;51.976;5.660;2024-01-11T05:41:14;102278.41;;;-6.53
34901;BMP280;21112;51.976;5.660;2024-01-11T05:43:40;102271.94;;;-6.53
34901;BMP280;21112;51.976;5.660;2024-01-11T05:46:07;102275.22;;;-6.64
34901;BMP280;21112;51.976;5.660;2024-01-11T05:48:34;102280.44;;;-6.71
34901;BMP280;21112;51.976;5.660;2024-01-11T05:51:01;102289.38;;;-6.71
34901;BMP280;21112;51.976;5.660;2024-01-11T05:53:29;102304.69;;;-6.74
34901;BMP280;21112;51.976;5.660;2024-01-11T05:55:58;102293.84;;;-6.77
34901;BMP280;21112;51.976;5.660;2024-01-11T05:58:25;102291.09;;;-6.82
34901;BMP280;21112;51.976;5.660;2024-01-11T06:00:55;102272.50;;;-6.91
34901;BMP280;21112;51.976;5.660;2024-01-11T06:03:22;102282.06;;;-6.83
34901;BMP280;21112;51.976;5.660;2024-01-11T06:05:49;102285.00;;;-6.87
34901;BMP280;21112;51.976;5.660;2024-01-11T06:08:15;102286.72;;;-6.86
34901;BMP280;21112;51.976;5.660;2024-01-11T06:10:44;102290.41;;;-6.91
34901;BMP280;21112;51.976;5.660;2024-01-11T06:13:10;102301.47;;;-6.96
34901;BMP280;21112;51.976;5.660;2024-01-11T06:15:37;102308.38;;;-7.02
34901;BMP280;21112;51.976;5.660;2024-01-11T06:18:04;102315.78;;;-7.00
34901;BMP280;21112;51.976;5.660;2024-01-11T06:20:31;102316.44;;;-6.91
34901;BMP280;21112;51.976;5.660;2024-01-11T06:22:57;102315.28;;;-6.85
34901;BMP280;21112;51.976;5.660;2024-01-11T06:25:24;102314.88;;;-6.79
34901;BMP280;21112;51.976;5.660;2024-01-11T06:27:52;102336.63;;;-6.82
34901;BMP280;21112;51.976;5.660;2024-01-11T06:30:20;102368.81;;;-6.76
34901;BMP280;21112;51.976;5.660;2024-01-11T06:32:47;102380.72;;;-6.69
34901;BMP280;21112;51.976;5.660;2024-01-11T06:35:13;102365.63;;;-6.64
34901;BMP280;21112;51.976;5.660;2024-01-11T06:37:40;102366.63;;;-6.62
34901;BMP280;21112;51.976;5.660;2024-01-11T06:40:07;102364.81;;;-6.64
34901;BMP280;21112;51.976;5.660;2024-01-11T06:42:34;102366.72;;;-6.60
34901;BMP280;21112;51.976;5.660;2024-01-11T06:45:03;102369.81;;;-6.63
34901;BMP280;21112;51.976;5.660;2024-01-11T06:47:29;102361.81;;;-6.60
34901;BMP280;21112;51.976;5.660;2024-01-11T06:49:56;102361.41;;;-6.55
34901;BMP280;21112;51.976;5.660;2024-01-11T06:52:23;102365.31;;;-6.57
34901;BMP280;21112;51.976;5.660;2024-01-11T06:54:49;102370.66;;;-6.62
34901;BMP280;21112;51.976;5.660;2024-01-11T06:57:16;102369.56;;;-6.66
34901;BMP280;21112;51.976;5.660;2024-01-11T06:59:42;102373.28;;;-6.71
34901;BMP280;21112;51.976;5.660;2024-01-11T07:02:13;102368.81;;;-6.76
34901;BMP280;21112;51.976;5.660;2024-01-11T07:04:43;102374.34;;;-6.79
34901;BMP280;21112;51.976;5.660;2024-01-11T07:07:10;102382.63;;;-6.77
34901;BMP280;21112;51.976;5.660;2024-01-11T07:09:37;102392.38;;;-6.77
34901;BMP280;21112;51.976;5.660;2024-01-11T07:12:05;102391.88;;;-6.73
34901;BMP280;21112;51.976;5.660;2024-01-11T07:14:32;102387.84;;;-6.72
34901;BMP280;21112;51.976;5.660;2024-01-11T07:16:58;102392.00;;;-6.71
34901;BMP280;21112;51.976;5.660;2024-01-11T07:19:26;102383.06;;;-6.71
34901;BMP280;21112;51.976;5.660;2024-01-11T07:21:53;102381.47;;;-6.70
34901;BMP280;21112;51.976;5.660;2024-01-11T07:24:20;102365.13;;;-6.71
34901;BMP280;21112;51.976;5.660;2024-01-11T07:26:47;102371.25;;;-6.76
34901;BMP280;21112;51.976;5.660;2024-01-11T07:29:14;102366.06;;;-6.81
34901;BMP280;21112;51.976;5.660;2024-01-11T07:31:40;102371.91;;;-6.79
34901;BMP280;21112;51.976;5.660;2024-01-11T07:34:07;102365.75;;;-6.85
34901;BMP280;21112;51.976;5.660;2024-01-11T07:36:35;102358.50;;;-6.84
34901;BMP280;21112;51.976;5.660;2024-01-11T07:39:02;102343.13;;;-6.83
34901;BMP280;21112;51.976;5.660;2024-01-11T07:41:29;102337.06;;;-6.88
34901;BMP280;21112;51.976;5.660;2024-01-11T07:43:56;102337.25;;;-6.96
34901;BMP280;21112;51.976;5.660;2024-01-11T07:46:24;102346.91;;;-6.98
34901;BMP280;21112;51.976;5.660;2024-01-11T07:48:51;102351.91;;;-6.96
34901;BMP280;21112;51.976;5.660;2024-01-11T07:51:18;102354.91;;;-6.89
34901;BMP280;21112;51.976;5.660;2024-01-11T07:53:47;102354.03;;;-6.89
34901;BMP280;21112;51.976;5.660;2024-01-11T07:56:13;102353.41;;;-6.87
34901;BMP280;21112;51.976;5.660;2024-01-11T07:58:40;102366.06;;;-6.81
34901;BMP280;21112;51.976;5.660;2024-01-11T08:01:07;102346.84;;;-6.76
34901;BMP280;21112;51.976;5.660;2024-01-11T08:03:34;102352.03;;;-6.72
34901;BMP280;21112;51.976;5.660;2024-01-11T08:06:00;102342.50;;;-6.69
34901;BMP280;21112;51.976;5.660;2024-01-11T08:08:39;102351.34;;;-6.59
34901;BMP280;21112;51.976;5.660;2024-01-11T08:14:13;102351.22;;;-6.61
34901;BMP280;21112;51.976;5.660;2024-01-11T08:16:41;102351.22;;;-6.61
34901;BMP280;21112;51.976;5.660;2024-01-11T08:19:07;102372.66;;;-6.57
34901;BMP280;21112;51.976;5.660;2024-01-11T08:21:35;102377.97;;;-6.51
34901;BMP280;21112;51.976;5.660;2024-01-11T08:24:02;102368.00;;;-6.42
34901;BMP280;21112;51.976;5.660;2024-01-11T08:26:29;102351.22;;;-6.38
34901;BMP280;21112;51.976;5.660;2024-01-11T08:28:56;102361.84;;;-6.37
34901;BMP280;21112;51.976;5.660;2024-01-11T08:31:24;102354.81;;;-6.33
34901;BMP280;21112;51.976;5.660;2024-01-11T08:33:53;102364.09;;;-6.29
34901;BMP280;21112;51.976;5.660;2024-01-11T08:36:20;102378.00;;;-6.28
34901;BMP280;21112;51.976;5.660;2024-01-11T08:38:47;102370.22;;;-6.22
34901;BMP280;21112;51.976;5.660;2024-01-11T08:41:15;102369.59;;;-6.20
34901;BMP280;21112;51.976;5.660;2024-01-11T08:43:41;102384.69;;;-6.14
34901;BMP280;21112;51.976;5.660;2024-01-11T08:46:08;102384.81;;;-6.12
34901;BMP280;21112;51.976;5.660;2024-01-11T08:48:36;102389.91;;;-6.09
34901;BMP280;21112;51.976;5.660;2024-01-11T08:51:03;102398.59;;;-6.01
34901;BMP280;21112;51.976;5.660;2024-01-11T08:53:30;102402.88;;;-5.99
34901;BMP280;21112;51.976;5.660;2024-01-11T08:55:56;102409.00;;;-5.92
34901;BMP280;21112;51.976;5.660;2024-01-11T08:58:23;102415.81;;;-5.88
34901;BMP280;21112;51.976;5.660;2024-01-11T09:00:50;102418.56;;;-5.84
34901;BMP280;21112;51.976;5.660;2024-01-11T09:03:17;102423.09;;;-5.77
34901;BMP280;21112;51.976;5.660;2024-01-11T09:05:45;102419.50;;;-5.70
34901;BMP280;21112;51.976;5.660;2024-01-11T09:08:12;102435.25;;;-5.67
34901;BMP280;21112;51.976;5.660;2024-01-11T09:10:39;102438.09;;;-5.61
34901;BMP280;21112;51.976;5.660;2024-01-11T09:13:07;102437.97;;;-5.51
34901;BMP280;21112;51.976;5.660;2024-01-11T09:15:35;102448.91;;;-5.46
34901;BMP280;21112;51.976;5.660;2024-01-11T09:18:02;102458.28;;;-5.40
34901;BMP280;21112;51.976;5.660;2024-01-11T09:20:29;102457.94;;;-5.33
34901;BMP280;21112;51.976;5.660;2024-01-11T09:22:58;102455.91;;;-5.27
34901;BMP280;21112;51.976;5.660;2024-01-11T09:25:24;102455.56;;;-5.20
34901;BMP280;21112;51.976;5.660;2024-01-11T09:27:54;102448.84;;;-5.11
34901;BMP280;21112;51.976;5.660;2024-01-11T09:30:24;102454.44;;;-5.01
34901;BMP280;21112;51.976;5.660;2024-01-11T09:32:50;102463.53;;;-4.87
34901;BMP280;21112;51.976;5.660;2024-01-11T09:35:17;102468.28;;;-4.77
34901;BMP280;21112;51.976;5.660;2024-01-11T09:37:44;102468.22;;;-4.66
34901;BMP280;21112;51.976;5.660;2024-01-11T09:40:13;102467.97;;;-4.57
34901;BMP280;21112;51.976;5.660;2024-01-11T09:42:42;102471.97;;;-4.46
34901;BMP280;21112;51.976;5.660;2024-01-11T09:45:12;102473.06;;;-4.41
34901;BMP280;21112;51.976;5.660;2024-01-11T09:47:39;102477.66;;;-4.34
34901;BMP280;21112;51.976;5.660;2024-01-11T09:50:07;102474.25;;;-4.23
34901;BMP280;21112;51.976;5.660;2024-01-11T09:52:34;102470.50;;;-4.18
34901;BMP280;21112;51.976;5.660;2024-01-11T09:55:01;102475.19;;;-4.08
34901;BMP280;21112;51.976;5.660;2024-01-11T09:57:30;102482.13;;;-4.03
34901;BMP280;21112;51.976;5.660;2024-01-11T09:59:58;102483.34;;;-3.96
34901;BMP280;21112;51.976;5.660;2024-01-11T10:02:25;102490.31;;;-3.89
34901;BMP280;21112;51.976;5.660;2024-01-11T10:04:53;102494.78;;;-3.84
34901;BMP280;21112;51.976;5.660;2024-01-11T10:07:21;102495.50;;;-3.72
34901;BMP280;21112;51.976;5.660;2024-01-11T10:09:50;102501.00;;;-3.63
34901;BMP280;21112;51.976;5.660;2024-01-11T10:12:17;102489.00;;;-3.58
34901;BMP280;21112;51.976;5.660;2024-01-11T10:14:47;102486.72;;;-3.55
34901;BMP280;21112;51.976;5.660;2024-01-11T10:17:14;102493.63;;;-3.50
34901;BMP280;21112;51.976;5.660;2024-01-11T10:19:40;102499.34;;;-3.36
34901;BMP280;21112;51.976;5.660;2024-01-11T10:22:07;102485.75;;;-3.31
34901;BMP280;21112;51.976;5.660;2024-01-11T10:24:38;102487.59;;;-3.27
34901;BMP280;21112;51.976;5.660;2024-01-11T10:27:08;102493.09;;;-3.18
34901;BMP280;21112;51.976;5.660;2024-01-11T10:29:35;102496.84;;;-3.10
34901;BMP280;21112;51.976;5.660;2024-01-11T10:32:05;102491.25;;;-3.08
34901;BMP280;21112;51.976;5.660;2024-01-11T10:34:31;102490.59;;;-3.05
34901;BMP280;21112;51.976;5.660;2024-01-11T10:36:59;102497.31;;;-3.03
34901;BMP280;21112;51.976;5.660;2024-01-11T10:39:28;102476.53;;;-2.93
34901;BMP280;21112;51.976;5.660;2024-01-11T10:42:04;102461.22;;;-2.89
34901;BMP280;21112;51.976;5.660;2024-01-11T10:44:33;102465.56;;;-2.85
34901;BMP280;21112;51.976;5.660;2024-01-11T10:47:04;102480.06;;;-2.75
34901;BMP280;21112;51.976;5.660;2024-01-11T10:49:33;102468.13;;;-2.69
34901;BMP280;21112;51.976;5.660;2024-01-11T10:52:03;102469.31;;;-2.63
34901;BMP280;21112;51.976;5.660;2024-01-11T10:54:31;102471.53;;;-2.53
34901;BMP280;21112;51.976;5.660;2024-01-11T10:57:00;102460.78;;;-2.40
34901;BMP280;21112;51.976;5.660;2024-01-11T10:59:31;102446.59;;;-2.15
34901;BMP280;21112;51.976;5.660;2024-01-11T11:02:02;102445.38;;;-1.93
34901;BMP280;21112;51.976;5.660;2024-01-11T11:04:33;102446.50;;;-2.17
34901;BMP280;21112;51.976;5.660;2024-01-11T11:07:04;102446.78;;;-2.27
34901;BMP280;21112;51.976;5.660;2024-01-11T11:09:34;102446.25;;;-2.36
34901;BMP280;21112;51.976;5.660;2024-01-11T11:12:01;102446.25;;;-2.21
34901;BMP280;21112;51.976;5.660;2024-01-11T11:14:29;102443.13;;;-2.19
34901;BMP280;21112;51.976;5.660;2024-01-11T11:16:58;102450.75;;;-2.14
34901;BMP280;21112;51.976;5.660;2024-01-11T11:19:25;102441.78;;;-2.14
34901;BMP280;21112;51.976;5.660;2024-01-11T11:21:56;102433.78;;;-2.10
34901;BMP280;21112;51.976;5.660;2024-01-11T11:24:23;102430.19;;;-2.00
34901;BMP280;21112;51.976;5.660;2024-01-11T11:26:49;102428.91;;;-1.94
34901;BMP280;21112;51.976;5.660;2024-01-11T11:29:16;102431.63;;;-1.89
34901;BMP280;21112;51.976;5.660;2024-01-11T11:31:49;102424.47;;;-1.85
34901;BMP280;21112;51.976;5.660;2024-01-11T11:34:20;102417.56;;;-1.76
34901;BMP280;21112;51.976;5.660;2024-01-11T11:36:46;102409.22;;;-1.63
34901;BMP280;21112;51.976;5.660;2024-01-11T11:39:16;102401.38;;;-1.56
34901;BMP280;21112;51.976;5.660;2024-01-11T11:41:45;102396.81;;;-1.49
34901;BMP280;21112;51.976;5.660;2024-01-11T11:44:16;102391.28;;;-1.45
34901;BMP280;21112;51.976;5.660;2024-01-11T11:46:42;102403.25;;;-1.36
34901;BMP280;21112;51.976;5.660;2024-01-11T11:49:11;102388.91;;;-1.27
34901;BMP280;21112;51.976;5.660;2024-01-11T11:51:39;102381.69;;;-1.24
34901;BMP280;21112;51.976;5.660;2024-01-11T11:54:08;102381.34;;;-1.14
34901;BMP280;21112;51.976;5.660;2024-01-11T11:56:50;102376.72;;;-1.08
34901;BMP280;21112;51.976;5.660;2024-01-11T11:59:17;102385.22;;;-1.03
34901;BMP280;21112;51.976;5.660;2024-01-11T12:01:44;102380.59;;;-0.97
34901;BMP280;21112;51.976;5.660;2024-01-11T12:04:13;102382.63;;;-0.89
34901;BMP280;21112;51.976;5.660;2024-01-11T12:06:46;102369.59;;;-0.86
34901;BMP280;21112;51.976;5.660;2024-01-11T12:09:18;102371.25;;;-0.87
34901;BMP280;21112;51.976;5.660;2024-01-11T12:11:48;102360.16;;;-0.77
34901;BMP280;21112;51.976;5.660;2024-01-11T12:14:15;102360.25;;;-0.76
34901;BMP280;21112;51.976;5.660;2024-01-11T12:16:41;102350.75;;;-0.68
34901;BMP280;21112;51.976;5.660;2024-01-11T12:19:08;102346.91;;;-0.63
34901;BMP280;21112;51.976;5.660;2024-01-11T12:21:35;102350.75;;;-0.68
34901;BMP280;21112;51.976;5.660;2024-01-11T12:24:06;102359.94;;;-0.66
34901;BMP280;21112;51.976;5.660;2024-01-11T12:26:32;102347.03;;;-0.60
34901;BMP280;21112;51.976;5.660;2024-01-11T12:29:01;102353.03;;;-0.55
34901;BMP280;21112;51.976;5.660;2024-01-11T12:31:28;102351.75;;;-0.47
34901;BMP280;21112;51.976;5.660;2024-01-11T12:33:55;102349.00;;;-0.36
34901;BMP280;21112;51.976;5.660;2024-01-11T12:36:23;102349.16;;;-0.33
34901;BMP280;21112;51.976;5.660;2024-01-11T12:38:52;102345.41;;;-0.25
34901;BMP280;21112;51.976;5.660;2024-01-11T12:41:19;102357.06;;;-0.22
34901;BMP280;21112;51.976;5.660;2024-01-11T12:43:46;102349.09;;;-0.17
34901;BMP280;21112;51.976;5.660;2024-01-11T12:46:15;102355.13;;;-0.11
34901;BMP280;21112;51.976;5.660;2024-01-11T12:48:42;102347.72;;;-0.11
34901;BMP280;21112;51.976;5.660;2024-01-11T12:51:09;102344.75;;;-0.04
34901;BMP280;21112;51.976;5.660;2024-01-11T12:53:36;102343.50;;;0.04
34901;BMP280;21112;51.976;5.660;2024-01-11T12:56:04;102341.94;;;0.06
34901;BMP280;21112;51.976;5.660;2024-01-11T12:58:33;102329.00;;;0.12
34901;BMP280;21112;51.976;5.660;2024-01-11T13:01:00;102330.31;;;0.23
34901;BMP280;21112;51.976;5.660;2024-01-11T13:03:29;102330.66;;;0.30
34901;BMP280;21112;51.976;5.660;2024-01-11T13:05:56;102332.28;;;0.30
34901;BMP280;21112;51.976;5.660;2024-01-11T13:08:24;102339.06;;;0.34
34901;BMP280;21112;51.976;5.660;2024-01-11T13:10:52;102326.81;;;0.37
34901;BMP280;21112;51.976;5.660;2024-01-11T13:13:19;102332.38;;;0.33
34901;BMP280;21112;51.976;5.660;2024-01-11T13:15:46;102324.25;;;0.35
34901;BMP280;21112;51.976;5.660;2024-01-11T13:18:13;102331.03;;;0.39
34901;BMP280;21112;51.976;5.660;2024-01-11T13:20:41;102327.00;;;0.41
34901;BMP280;21112;51.976;5.660;2024-01-11T13:23:13;102321.41;;;0.45
34901;BMP280;21112;51.976;5.660;2024-01-11T13:25:43;102327.88;;;0.42
34901;BMP280;21112;51.976;5.660;2024-01-11T13:28:16;102327.66;;;0.37
34901;BMP280;21112;51.976;5.660;2024-01-11T13:30:44;102319.22;;;0.32
34901;BMP280;21112;51.976;5.660;2024-01-11T13:33:12;102318.53;;;0.36
34901;BMP280;21112;51.976;5.660;2024-01-11T13:35:44;102310.56;;;0.42
34901;BMP280;21112;51.976;5.660;2024-01-11T13:38:11;102314.66;;;0.41
34901;BMP280;21112;51.976;5.660;2024-01-11T13:40:41;102321.53;;;0.48
34901;BMP280;21112;51.976;5.660;2024-01-11T13:43:16;102321.22;;;0.41
34901;BMP280;21112;51.976;5.660;2024-01-11T13:45:44;102325.31;;;0.40
34901;BMP280;21112;51.976;5.660;2024-01-11T13:48:11;102321.97;;;0.40
34901;BMP280;21112;51.976;5.660;2024-01-11T13:50:37;102317.63;;;0.34
34901;BMP280;21112;51.976;5.660;2024-01-11T13:53:05;102301.13;;;0.33
34901;BMP280;21112;51.976;5.660;2024-01-11T13:55:32;102302.69;;;0.31
34901;BMP280;21112;51.976;5.660;2024-01-11T13:58:03;102297.88;;;0.34
34901;BMP280;21112;51.976;5.660;2024-01-11T14:00:30;102301.25;;;0.36
34901;BMP280;21112;51.976;5.660;2024-01-11T14:02:58;102295.59;;;0.39
34901;BMP280;21112;51.976;5.660;2024-01-11T14:05:25;102292.22;;;0.37
34901;BMP280;21112;51.976;5.660;2024-01-11T14:07:52;102294.31;;;0.28
34901;BMP280;21112;51.976;5.660;2024-01-11T14:10:25;102305.00;;;0.28
34901;BMP280;21112;51.976;5.660;2024-01-11T14:12:52;102289.41;;;0.29
34901;BMP280;21112;51.976;5.660;2024-01-11T14:15:19;102299.16;;;0.26
34901;BMP280;21112;51.976;5.660;2024-01-11T14:17:46;102300.66;;;0.23
34901;BMP280;21112;51.976;5.660;2024-01-11T14:20:13;102303.97;;;0.23
34901;BMP280;21112;51.976;5.660;2024-01-11T14:22:41;102300.75;;;0.24
34901;BMP280;21112;51.976;5.660;2024-01-11T14:25:12;102295.81;;;0.24
34901;BMP280;21112;51.976;5.660;2024-01-11T14:27:43;102299.97;;;0.25
34901;BMP280;21112;51.976;5.660;2024-01-11T14:30:11;102285.91;;;0.24
34901;BMP280;21112;51.976;5.660;2024-01-11T14:32:41;102284.28;;;0.25
34901;BMP280;21112;51.976;5.660;2024-01-11T14:35:08;102286.56;;;0.20
34901;BMP280;21112;51.976;5.660;2024-01-11T14:37:36;102275.09;;;0.22
34901;BMP280;21112;51.976;5.660;2024-01-11T14:40:07;102270.16;;;0.22
34901;BMP280;21112;51.976;5.660;2024-01-11T14:42:35;102264.31;;;0.20
34901;BMP280;21112;51.976;5.660;2024-01-11T14:45:04;102265.94;;;0.20
34901;BMP280;21112;51.976;5.660;2024-01-11T14:47:31;102265.19;;;0.21
34901;BMP280;21112;51.976;5.660;2024-01-11T14:49:59;102254.44;;;0.20
34901;BMP280;21112;51.976;5.660;2024-01-11T14:52:26;102260.94;;;0.18
34901;BMP280;21112;51.976;5.660;2024-01-11T14:54:52;102262.47;;;0.16
34901;BMP280;21112;51.976;5.660;2024-01-11T14:57:19;102257.53;;;0.16
34901;BMP280;21112;51.976;5.660;2024-01-11T14:59:48;102258.41;;;0.17
34901;BMP280;21112;51.976;5.660;2024-01-11T15:02:20;102263.25;;;0.15
34901;BMP280;21112;51.976;5.660;2024-01-11T15:04:48;102263.41;;;0.18
34901;BMP280;21112;51.976;5.660;2024-01-11T15:07:15;102270.13;;;0.21
34901;BMP280;21112;51.976;5.660;2024-01-11T15:09:42;102264.31;;;0.20
34901;BMP280;21112;51.976;5.660;2024-01-11T15:12:09;102256.13;;;0.21
34901;BMP280;21112;51.976;5.660;2024-01-11T15:14:36;102269.19;;;0.19
34901;BMP280;21112;51.976;5.660;2024-01-11T15:17:03;102260.16;;;0.19
34901;BMP280;21112;51.976;5.660;2024-01-11T15:19:31;102253.53;;;0.18
34901;BMP280;21112;51.976;5.660;2024-01-11T15:21:58;102257.69;;;0.19
34901;BMP280;21112;51.976;5.660;2024-01-11T15:24:24;102258.47;;;0.18
34901;BMP280;21112;51.976;5.660;2024-01-11T15:26:53;102253.53;;;0.18
34901;BMP280;21112;51.976;5.660;2024-01-11T15:29:19;102255.03;;;0.15
34901;BMP280;21112;51.976;5.660;2024-01-11T15:31:47;102259.25;;;0.17
34901;BMP280;21112;51.976;5.660;2024-01-11T15:34:15;102242.69;;;0.15
34901;BMP280;21112;51.976;5.660;2024-01-11T15:36:44;102247.53;;;0.13
34901;BMP280;21112;51.976;5.660;2024-01-11T15:39:13;102240.03;;;0.10
34901;BMP280;21112;51.976;5.660;2024-01-11T15:41:40;102243.25;;;0.09
34901;BMP280;21112;51.976;5.660;2024-01-11T15:44:07;102242.41;;;0.09
34901;BMP280;21112;51.976;5.660;2024-01-11T15:52:59;102235.63;;;0.05
34901;BMP280;21112;51.976;5.660;2024-01-11T15:55:26;102235.63;;;0.05
34901;BMP280;21112;51.976;5.660;2024-01-11T15:57:53;102233.94;;;0.04
34901;BMP280;21112;51.976;5.660;2024-01-11T16:00:20;102240.53;;;0.03
34901;BMP280;21112;51.976;5.660;2024-01-11T16:02:46;102244.63;;;0.03
34901;BMP280;21112;51.976;5.660;2024-01-11T16:05:13;102235.44;;;0.00
34901;BMP280;21112;51.976;5.660;2024-01-11T16:07:40;102235.44;;;0.00
34901;BMP280;21112;51.976;5.660;2024-01-11T16:10:08;102232.16;;;0.00
34901;BMP280;21112;51.976;5.660;2024-01-11T16:12:35;102230.50;;;0.00
34901;BMP280;21112;51.976;5.660;2024-01-11T16:15:03;102223.09;;;0.00
34901;BMP280;21112;51.976;5.660;2024-01-11T16:17:30;102215.69;;;0.00
34901;BMP280;21112;51.976;5.660;2024-01-11T16:20:03;102228.19;;;0.03
34901;BMP280;21112;51.976;5.660;2024-01-11T16:22:30;102220.69;;;0.02
34901;BMP280;21112;51.976;5.660;2024-01-11T16:24:59;102221.41;;;-0.01
34901;BMP280;21112;51.976;5.660;2024-01-11T16:27:28;102211.53;;;-0.01
34901;BMP280;21112;51.976;5.660;2024-01-11T16:29:55;102224.00;;;0.02
34901;BMP280;21112;51.976;5.660;2024-01-11T16:32:21;102224.00;;;0.02
34901;BMP280;21112;51.976;5.660;2024-01-11T16:34:48;102228.94;;;0.02
34901;BMP280;21112;51.976;5.660;2024-01-11T16:37:16;102214.88;;;0.00